sensor_id;sensor_type;location;lat;lon;timestamp;temperature;humidity
23991;DHT22;12205;50.600;4.608;2023-05-19T00:01:12;11.70;99.90
23991;DHT22;12205;50.600;4.608;2023-05-19T00:03:49;11.70;99.90
23991;DHT22;12205;50.600;4.608;2023-05-19T00:06:21;11.60;99.90
23991;DHT22;12205;50.600;4.608;2023-05-19T00:08:49;11.50;99.90
23991;DHT22;12205;50.600;4.608;2023-05-19T00:11:19;11.50;99.90
23991;DHT22;12205;50.600;4.608;2023-05-19T00:13:47;11.50;99.90
23991;DHT22;12205;50.600;4.608;2023-05-19T00:16:17;11.40;99.90
23991;DHT22;12205;50.600;4.608;2023-05-19T00:18:44;11.40;99.90
23991;DHT22;12205;50.600;4.608;2023-05-19T00:21:12;11.30;99.90
23991;DHT22;12205;50.600;4.608;2023-05-19T00:23:39;11.30;99.90
23991;DHT22;12205;50.600;4.608;2023-05-19T00:26:06;11.20;99.90
23991;DHT22;12205;50.600;4.608;2023-05-19T00:28:33;11.20;99.90
23991;DHT22;12205;50.600;4.608;2023-05-19T00:31:00;11.10;99.90
23991;DHT22;12205;50.600;4.608;2023-05-19T00:33:28;11.10;99.90
23991;DHT22;12205;50.600;4.608;2023-05-19T00:35:55;11.10;99.90
23991;DHT22;12205;50.600;4.608;2023-05-19T00:38:22;11.00;99.90
23991;DHT22;12205;50.600;4.608;2023-05-19T00:40:49;11.00;99.90
23991;DHT22;12205;50.600;4.608;2023-05-19T00:43:16;10.90;99.90
23991;DHT22;12205;50.600;4.608;2023-05-19T00:45:43;10.90;99.90
23991;DHT22;12205;50.600;4.608;2023-05-19T00:48:11;10.90;99.90
23991;DHT22;12205;50.600;4.608;2023-05-19T00:50:40;10.80;99.90
23991;DHT22;12205;50.600;4.608;2023-05-19T00:53:07;10.80;99.90
23991;DHT22;12205;50.600;4.608;2023-05-19T00:55:36;10.80;99.90
23991;DHT22;12205;50.600;4.608;2023-05-19T00:58:05;10.70;99.90
23991;DHT22;12205;50.600;4.608;2023-05-19T01:00:33;10.70;99.90
23991;DHT22;12205;50.600;4.608;2023-05-19T01:03:01;10.70;99.90
23991;DHT22;12205;50.600;4.608;2023-05-19T01:05:37;10.60;99.90
23991;DHT22;12205;50.600;4.608;2023-05-19T01:08:06;10.60;99.90
23991;DHT22;12205;50.600;4.608;2023-05-19T01:10:33;10.60;99.90
23991;DHT22;12205;50.600;4.608;2023-05-19T01:13:00;10.50;99.90
23991;DHT22;12205;50.600;4.608;2023-05-19T01:15:29;10.50;99.90
23991;DHT22;12205;50.600;4.608;2023-05-19T01:18:04;10.40;99.90
23991;DHT22;12205;50.600;4.608;2023-05-19T01:20:37;10.40;99.90
23991;DHT22;12205;50.600;4.608;2023-05-19T01:26:13;10.30;99.90
23991;DHT22;12205;50.600;4.608;2023-05-19T01:29:07;10.30;99.90
23991;DHT22;12205;50.600;4.608;2023-05-19T01:31:44;10.20;99.90
23991;DHT22;12205;50.600;4.608;2023-05-19T01:34:13;10.10;99.90
23991;DHT22;12205;50.600;4.608;2023-05-19T01:36:42;10.10;99.90
23991;DHT22;12205;50.600;4.608;2023-05-19T01:39:12;10.00;99.90
23991;DHT22;12205;50.600;4.608;2023-05-19T01:41:40;10.00;99.90
23991;DHT22;12205;50.600;4.608;2023-05-19T01:44:08;10.00;99.90
23991;DHT22;12205;50.600;4.608;2023-05-19T01:46:36;9.90;99.90
23991;DHT22;12205;50.600;4.608;2023-05-19T01:49:05;9.90;99.90
23991;DHT22;12205;50.600;4.608;2023-05-19T01:51:33;9.80;99.90
23991;DHT22;12205;50.600;4.608;2023-05-19T01:54:00;9.80;99.90
23991;DHT22;12205;50.600;4.608;2023-05-19T01:56:33;9.80;99.90
23991;DHT22;12205;50.600;4.608;2023-05-19T01:59:12;9.80;99.90
23991;DHT22;12205;50.600;4.608;2023-05-19T02:01:50;9.70;99.90
23991;DHT22;12205;50.600;4.608;2023-05-19T02:04:27;9.70;99.90
23991;DHT22;12205;50.600;4.608;2023-05-19T02:07:02;9.70;99.90
23991;DHT22;12205;50.600;4.608;2023-05-19T02:09:38;9.60;99.90
23991;DHT22;12205;50.600;4.608;2023-05-19T02:12:10;9.60;99.90
23991;DHT22;12205;50.600;4.608;2023-05-19T02:14:44;9.50;99.90
23991;DHT22;12205;50.600;4.608;2023-05-19T02:17:17;9.50;99.90
23991;DHT22;12205;50.600;4.608;2023-05-19T02:19:46;9.50;99.90
23991;DHT22;12205;50.600;4.608;2023-05-19T02:22:13;9.40;99.90
23991;DHT22;12205;50.600;4.608;2023-05-19T02:24:40;9.40;99.90
23991;DHT22;12205;50.600;4.608;2023-05-19T02:27:08;9.30;99.90
23991;DHT22;12205;50.600;4.608;2023-05-19T02:29:35;9.30;99.90
23991;DHT22;12205;50.600;4.608;2023-05-19T02:32:03;9.30;99.90
23991;DHT22;12205;50.600;4.608;2023-05-19T02:34:29;9.20;99.90
23991;DHT22;12205;50.600;4.608;2023-05-19T02:36:58;9.20;99.90
23991;DHT22;12205;50.600;4.608;2023-05-19T02:39:25;9.20;99.90
23991;DHT22;12205;50.600;4.608;2023-05-19T02:41:53;9.20;99.90
23991;DHT22;12205;50.600;4.608;2023-05-19T02:44:20;9.10;99.90
23991;DHT22;12205;50.600;4.608;2023-05-19T02:46:47;9.10;99.90
23991;DHT22;12205;50.600;4.608;2023-05-19T02:49:14;9.00;99.90
23991;DHT22;12205;50.600;4.608;2023-05-19T02:51:41;9.00;99.90
23991;DHT22;12205;50.600;4.608;2023-05-19T02:54:09;9.00;99.90
23991;DHT22;12205;50.600;4.608;2023-05-19T02:56:36;8.90;99.90
23991;DHT22;12205;50.600;4.608;2023-05-19T02:59:03;8.90;99.90
23991;DHT22;12205;50.600;4.608;2023-05-19T03:01:30;8.90;99.90
23991;DHT22;12205;50.600;4.608;2023-05-19T03:03:58;8.90;99.90
23991;DHT22;12205;50.600;4.608;2023-05-19T03:06:25;8.80;99.90
23991;DHT22;12205;50.600;4.608;2023-05-19T03:08:52;8.80;99.90
23991;DHT22;12205;50.600;4.608;2023-05-19T03:11:20;8.80;99.90
23991;DHT22;12205;50.600;4.608;2023-05-19T03:13:47;8.80;99.90
23991;DHT22;12205;50.600;4.608;2023-05-19T03:16:14;8.70;99.90
23991;DHT22;12205;50.600;4.608;2023-05-19T03:18:42;8.70;99.90
23991;DHT22;12205;50.600;4.608;2023-05-19T03:21:09;8.70;99.90
23991;DHT22;12205;50.600;4.608;2023-05-19T03:23:36;8.70;99.90
23991;DHT22;12205;50.600;4.608;2023-05-19T03:26:03;8.60;99.90
23991;DHT22;12205;50.600;4.608;2023-05-19T03:28:32;8.60;99.90
23991;DHT22;12205;50.600;4.608;2023-05-19T03:30:59;8.50;99.90
23991;DHT22;12205;50.600;4.608;2023-05-19T03:33:32;8.50;99.90
23991;DHT22;12205;50.600;4.608;2023-05-19T03:35:59;8.50;99.90
23991;DHT22;12205;50.600;4.608;2023-05-19T03:38:29;8.50;99.90
23991;DHT22;12205;50.600;4.608;2023-05-19T03:40:57;8.40;99.90
23991;DHT22;12205;50.600;4.608;2023-05-19T03:43:25;8.40;99.90
23991;DHT22;12205;50.600;4.608;2023-05-19T03:45:58;8.30;99.90
23991;DHT22;12205;50.600;4.608;2023-05-19T03:48:44;8.30;99.90
23991;DHT22;12205;50.600;4.608;2023-05-19T03:51:31;8.20;99.90
23991;DHT22;12205;50.600;4.608;2023-05-19T03:54:06;8.20;99.90
23991;DHT22;12205;50.600;4.608;2023-05-19T03:56:36;8.20;99.90
23991;DHT22;12205;50.600;4.608;2023-05-19T03:59:06;8.20;99.90
23991;DHT22;12205;50.600;4.608;2023-05-19T04:01:36;8.20;99.90
23991;DHT22;12205;50.600;4.608;2023-05-19T04:04:03;8.20;99.90
23991;DHT22;12205;50.600;4.608;2023-05-19T04:06:30;8.10;99.90
23991;DHT22;12205;50.600;4.608;2023-05-19T04:08:58;8.10;99.90
23991;DHT22;12205;50.600;4.608;2023-05-19T04:11:25;8.10;99.90
23991;DHT22;12205;50.600;4.608;2023-05-19T04:13:52;8.10;99.90
23991;DHT22;12205;50.600;4.608;2023-05-19T04:16:19;8.10;99.90
23991;DHT22;12205;50.600;4.608;2023-05-19T04:18:48;8.10;99.90
23991;DHT22;12205;50.600;4.608;2023-05-19T04:21:15;8.10;99.90
23991;DHT22;12205;50.600;4.608;2023-05-19T04:23:42;8.10;99.90
23991;DHT22;12205;50.600;4.608;2023-05-19T04:26:09;8.10;99.90
23991;DHT22;12205;50.600;4.608;2023-05-19T04:28:37;8.10;99.90
23991;DHT22;12205;50.600;4.608;2023-05-19T04:31:07;8.10;99.90
23991;DHT22;12205;50.600;4.608;2023-05-19T04:33:35;8.10;99.90
23991;DHT22;12205;50.600;4.608;2023-05-19T04:36:04;8.10;99.90
23991;DHT22;12205;50.600;4.608;2023-05-19T04:38:33;8.10;99.90
23991;DHT22;12205;50.600;4.608;2023-05-19T04:41:01;8.10;99.90
23991;DHT22;12205;50.600;4.608;2023-05-19T04:43:30;8.10;99.90
23991;DHT22;12205;50.600;4.608;2023-05-19T04:45:58;8.20;99.90
23991;DHT22;12205;50.600;4.608;2023-05-19T04:48:26;8.20;99.90
23991;DHT22;12205;50.600;4.608;2023-05-19T04:50:55;8.20;99.90
23991;DHT22;12205;50.600;4.608;2023-05-19T04:53:24;8.30;99.90
23991;DHT22;12205;50.600;4.608;2023-05-19T04:55:51;8.30;99.90
23991;DHT22;12205;50.600;4.608;2023-05-19T04:58:18;8.40;99.90
23991;DHT22;12205;50.600;4.608;2023-05-19T05:00:46;8.40;99.90
23991;DHT22;12205;50.600;4.608;2023-05-19T05:03:13;8.40;99.90
23991;DHT22;12205;50.600;4.608;2023-05-19T05:05:41;8.50;99.90
23991;DHT22;12205;50.600;4.608;2023-05-19T05:08:08;8.50;99.90
23991;DHT22;12205;50.600;4.608;2023-05-19T05:10:40;8.50;99.90
23991;DHT22;12205;50.600;4.608;2023-05-19T05:13:07;8.60;99.90
23991;DHT22;12205;50.600;4.608;2023-05-19T05:15:36;8.60;99.90
23991;DHT22;12205;50.600;4.608;2023-05-19T05:18:03;8.70;99.90
23991;DHT22;12205;50.600;4.608;2023-05-19T05:20:31;8.80;99.90
23991;DHT22;12205;50.600;4.608;2023-05-19T05:22:59;8.80;99.90
23991;DHT22;12205;50.600;4.608;2023-05-19T05:25:27;8.90;99.90
23991;DHT22;12205;50.600;4.608;2023-05-19T05:27:55;9.00;99.90
23991;DHT22;12205;50.600;4.608;2023-05-19T05:30:23;9.00;99.90
23991;DHT22;12205;50.600;4.608;2023-05-19T05:32:51;9.10;99.90
23991;DHT22;12205;50.600;4.608;2023-05-19T05:35:30;9.20;99.90
23991;DHT22;12205;50.600;4.608;2023-05-19T05:37:58;9.20;99.90
23991;DHT22;12205;50.600;4.608;2023-05-19T05:40:26;9.30;99.90
23991;DHT22;12205;50.600;4.608;2023-05-19T05:42:54;9.30;99.90
23991;DHT22;12205;50.600;4.608;2023-05-19T05:45:25;9.40;99.90
23991;DHT22;12205;50.600;4.608;2023-05-19T05:47:53;9.40;99.90
23991;DHT22;12205;50.600;4.608;2023-05-19T05:50:21;9.50;99.90
23991;DHT22;12205;50.600;4.608;2023-05-19T05:52:49;9.60;99.90
23991;DHT22;12205;50.600;4.608;2023-05-19T05:55:18;9.60;99.90
23991;DHT22;12205;50.600;4.608;2023-05-19T05:57:46;9.70;99.90
23991;DHT22;12205;50.600;4.608;2023-05-19T06:00:16;9.80;99.90
23991;DHT22;12205;50.600;4.608;2023-05-19T06:02:50;9.90;99.90
23991;DHT22;12205;50.600;4.608;2023-05-19T06:05:18;9.90;99.90
23991;DHT22;12205;50.600;4.608;2023-05-19T06:07:46;10.00;99.90
23991;DHT22;12205;50.600;4.608;2023-05-19T06:10:19;10.00;99.90
23991;DHT22;12205;50.600;4.608;2023-05-19T06:12:47;10.10;99.90
23991;DHT22;12205;50.600;4.608;2023-05-19T06:15:16;10.20;99.90
23991;DHT22;12205;50.600;4.608;2023-05-19T06:18:09;10.20;99.90
23991;DHT22;12205;50.600;4.608;2023-05-19T06:20:36;10.30;99.90
23991;DHT22;12205;50.600;4.608;2023-05-19T06:23:02;10.30;99.90
23991;DHT22;12205;50.600;4.608;2023-05-19T06:25:29;10.40;99.90
23991;DHT22;12205;50.600;4.608;2023-05-19T06:27:57;10.50;99.90
23991;DHT22;12205;50.600;4.608;2023-05-19T06:30:25;10.50;99.90
23991;DHT22;12205;50.600;4.608;2023-05-19T06:33:01;10.50;99.90
23991;DHT22;12205;50.600;4.608;2023-05-19T06:35:29;10.60;99.90
23991;DHT22;12205;50.600;4.608;2023-05-19T06:37:56;10.70;99.90
23991;DHT22;12205;50.600;4.608;2023-05-19T06:40:23;10.80;99.90
23991;DHT22;12205;50.600;4.608;2023-05-19T06:42:50;10.80;99.90
23991;DHT22;12205;50.600;4.608;2023-05-19T06:45:52;10.90;99.90
23991;DHT22;12205;50.600;4.608;2023-05-19T06:48:20;10.90;99.90
23991;DHT22;12205;50.600;4.608;2023-05-19T06:50:47;11.00;99.90
23991;DHT22;12205;50.600;4.608;2023-05-19T06:53:15;11.10;99.90
23991;DHT22;12205;50.600;4.608;2023-05-19T06:55:43;11.20;99.90
23991;DHT22;12205;50.600;4.608;2023-05-19T06:58:12;11.20;99.90
23991;DHT22;12205;50.600;4.608;2023-05-19T07:00:38;11.30;99.90
23991;DHT22;12205;50.600;4.608;2023-05-19T07:03:09;11.40;99.90
23991;DHT22;12205;50.600;4.608;2023-05-19T07:05:37;11.40;99.90
23991;DHT22;12205;50.600;4.608;2023-05-19T07:08:04;11.50;99.90
23991;DHT22;12205;50.600;4.608;2023-05-19T07:10:34;11.60;99.90
23991;DHT22;12205;50.600;4.608;2023-05-19T07:13:05;11.70;99.90
23991;DHT22;12205;50.600;4.608;2023-05-19T07:15:33;11.80;99.90
23991;DHT22;12205;50.600;4.608;2023-05-19T07:18:00;11.80;99.90
23991;DHT22;12205;50.600;4.608;2023-05-19T07:20:28;11.90;99.90
23991;DHT22;12205;50.600;4.608;2023-05-19T07:22:56;12.00;99.90
23991;DHT22;12205;50.600;4.608;2023-05-19T07:25:23;12.10;99.90
23991;DHT22;12205;50.600;4.608;2023-05-19T07:27:51;12.20;99.90
23991;DHT22;12205;50.600;4.608;2023-05-19T07:30:18;12.20;99.90
23991;DHT22;12205;50.600;4.608;2023-05-19T07:32:45;12.30;99.90
23991;DHT22;12205;50.600;4.608;2023-05-19T07:35:12;12.40;99.90
23991;DHT22;12205;50.600;4.608;2023-05-19T07:37:40;12.40;99.90
23991;DHT22;12205;50.600;4.608;2023-05-19T07:40:08;12.50;99.90
23991;DHT22;12205;50.600;4.608;2023-05-19T07:42:35;12.60;99.90
23991;DHT22;12205;50.600;4.608;2023-05-19T07:45:02;12.70;99.90
23991;DHT22;12205;50.600;4.608;2023-05-19T07:47:29;12.80;99.90
23991;DHT22;12205;50.600;4.608;2023-05-19T07:49:55;12.90;99.90
23991;DHT22;12205;50.600;4.608;2023-05-19T07:52:22;13.00;99.90
23991;DHT22;12205;50.600;4.608;2023-05-19T07:54:51;13.10;99.90
23991;DHT22;12205;50.600;4.608;2023-05-19T07:57:18;13.20;99.90
23991;DHT22;12205;50.600;4.608;2023-05-19T07:59:45;13.40;99.90
23991;DHT22;12205;50.600;4.608;2023-05-19T08:02:11;13.50;99.90
23991;DHT22;12205;50.600;4.608;2023-05-19T08:04:38;13.60;99.90
23991;DHT22;12205;50.600;4.608;2023-05-19T08:07:05;13.60;99.90
23991;DHT22;12205;50.600;4.608;2023-05-19T08:09:32;13.80;99.90
23991;DHT22;12205;50.600;4.608;2023-05-19T08:12:00;13.90;99.90
23991;DHT22;12205;50.600;4.608;2023-05-19T08:14:29;14.00;99.90
23991;DHT22;12205;50.600;4.608;2023-05-19T08:16:57;14.10;99.90
23991;DHT22;12205;50.600;4.608;2023-05-19T08:19:24;14.20;99.90
23991;DHT22;12205;50.600;4.608;2023-05-19T08:21:51;14.30;99.90
23991;DHT22;12205;50.600;4.608;2023-05-19T08:24:18;14.40;99.90
23991;DHT22;12205;50.600;4.608;2023-05-19T08:26:45;14.40;99.90
23991;DHT22;12205;50.600;4.608;2023-05-19T08:29:13;14.50;99.90
23991;DHT22;12205;50.600;4.608;2023-05-19T08:31:40;14.60;99.90
23991;DHT22;12205;50.600;4.608;2023-05-19T08:34:07;14.70;99.90
23991;DHT22;12205;50.600;4.608;2023-05-19T08:36:34;14.80;99.90
23991;DHT22;12205;50.600;4.608;2023-05-19T08:39:01;14.90;99.90
23991;DHT22;12205;50.600;4.608;2023-05-19T08:41:28;14.90;99.90
23991;DHT22;12205;50.600;4.608;2023-05-19T08:43:54;15.00;99.90
23991;DHT22;12205;50.600;4.608;2023-05-19T08:46:24;15.10;99.90
23991;DHT22;12205;50.600;4.608;2023-05-19T08:48:53;15.20;99.90
23991;DHT22;12205;50.600;4.608;2023-05-19T08:51:29;15.30;99.90
23991;DHT22;12205;50.600;4.608;2023-05-19T08:54:06;15.30;99.90
23991;DHT22;12205;50.600;4.608;2023-05-19T08:56:35;15.40;99.90
23991;DHT22;12205;50.600;4.608;2023-05-19T08:59:03;15.50;99.90
23991;DHT22;12205;50.600;4.608;2023-05-19T09:01:32;15.60;99.90
23991;DHT22;12205;50.600;4.608;2023-05-19T09:04:00;15.70;99.90
23991;DHT22;12205;50.600;4.608;2023-05-19T09:06:27;15.70;99.90
23991;DHT22;12205;50.600;4.608;2023-05-19T09:08:57;15.80;99.90
23991;DHT22;12205;50.600;4.608;2023-05-19T09:11:24;15.90;99.90
23991;DHT22;12205;50.600;4.608;2023-05-19T09:13:51;16.00;99.90
23991;DHT22;12205;50.600;4.608;2023-05-19T09:16:18;16.00;99.90
23991;DHT22;12205;50.600;4.608;2023-05-19T09:18:54;16.10;99.90
23991;DHT22;12205;50.600;4.608;2023-05-19T09:21:26;16.10;99.90
23991;DHT22;12205;50.600;4.608;2023-05-19T09:23:55;16.10;99.90
23991;DHT22;12205;50.600;4.608;2023-05-19T09:26:22;16.20;99.90
23991;DHT22;12205;50.600;4.608;2023-05-19T09:28:49;16.30;99.90
23991;DHT22;12205;50.600;4.608;2023-05-19T09:31:16;16.30;99.90
23991;DHT22;12205;50.600;4.608;2023-05-19T09:33:43;16.40;99.90
23991;DHT22;12205;50.600;4.608;2023-05-19T09:36:11;16.50;99.90
23991;DHT22;12205;50.600;4.608;2023-05-19T09:38:39;16.60;99.90
23991;DHT22;12205;50.600;4.608;2023-05-19T09:41:06;16.70;99.90
23991;DHT22;12205;50.600;4.608;2023-05-19T09:43:34;16.70;99.90
23991;DHT22;12205;50.600;4.608;2023-05-19T09:46:03;16.80;99.90
23991;DHT22;12205;50.600;4.608;2023-05-19T09:48:30;16.80;99.90
23991;DHT22;12205;50.600;4.608;2023-05-19T09:50:58;16.90;99.90
23991;DHT22;12205;50.600;4.608;2023-05-19T09:53:28;16.90;99.90
23991;DHT22;12205;50.600;4.608;2023-05-19T09:55:56;16.90;99.90
23991;DHT22;12205;50.600;4.608;2023-05-19T09:58:23;17.00;99.90
23991;DHT22;12205;50.600;4.608;2023-05-19T10:00:51;17.00;99.90
23991;DHT22;12205;50.600;4.608;2023-05-19T10:03:20;17.00;99.90
23991;DHT22;12205;50.600;4.608;2023-05-19T10:05:48;17.10;99.90
23991;DHT22;12205;50.600;4.608;2023-05-19T10:08:16;17.10;99.90
23991;DHT22;12205;50.600;4.608;2023-05-19T10:10:46;17.20;99.90
23991;DHT22;12205;50.600;4.608;2023-05-19T10:13:13;17.20;99.90
23991;DHT22;12205;50.600;4.608;2023-05-19T10:15:40;17.30;99.90
23991;DHT22;12205;50.600;4.608;2023-05-19T10:18:08;17.40;99.90
23991;DHT22;12205;50.600;4.608;2023-05-19T10:20:36;17.40;99.90
23991;DHT22;12205;50.600;4.608;2023-05-19T10:23:04;17.50;99.90
23991;DHT22;12205;50.600;4.608;2023-05-19T10:25:32;17.50;99.90
23991;DHT22;12205;50.600;4.608;2023-05-19T10:28:04;17.60;99.90
23991;DHT22;12205;50.600;4.608;2023-05-19T10:30:33;17.70;99.90
23991;DHT22;12205;50.600;4.608;2023-05-19T10:33:03;17.80;99.90
23991;DHT22;12205;50.600;4.608;2023-05-19T10:35:57;17.90;99.90
23991;DHT22;12205;50.600;4.608;2023-05-19T10:38:31;18.00;99.90
23991;DHT22;12205;50.600;4.608;2023-05-19T10:41:04;18.10;99.90
23991;DHT22;12205;50.600;4.608;2023-05-19T10:43:43;18.20;99.90
23991;DHT22;12205;50.600;4.608;2023-05-19T10:46:13;18.20;99.90
23991;DHT22;12205;50.600;4.608;2023-05-19T10:48:43;18.20;99.90
23991;DHT22;12205;50.600;4.608;2023-05-19T10:51:11;18.30;99.90
23991;DHT22;12205;50.600;4.608;2023-05-19T10:53:41;18.40;99.90
23991;DHT22;12205;50.600;4.608;2023-05-19T10:56:11;18.50;99.90
23991;DHT22;12205;50.600;4.608;2023-05-19T10:58:55;18.50;99.90
23991;DHT22;12205;50.600;4.608;2023-05-19T11:01:29;18.60;99.90
23991;DHT22;12205;50.600;4.608;2023-05-19T11:03:56;18.70;99.90
23991;DHT22;12205;50.600;4.608;2023-05-19T11:06:27;18.80;99.90
23991;DHT22;12205;50.600;4.608;2023-05-19T11:08:58;18.90;99.90
23991;DHT22;12205;50.600;4.608;2023-05-19T11:11:43;18.90;99.90
23991;DHT22;12205;50.600;4.608;2023-05-19T11:14:11;19.00;99.90
23991;DHT22;12205;50.600;4.608;2023-05-19T11:16:40;19.10;99.90
23991;DHT22;12205;50.600;4.608;2023-05-19T11:19:07;19.20;99.90
23991;DHT22;12205;50.600;4.608;2023-05-19T11:21:41;19.30;99.90
23991;DHT22;12205;50.600;4.608;2023-05-19T11:24:09;19.40;99.90
23991;DHT22;12205;50.600;4.608;2023-05-19T11:26:39;19.50;99.90
23991;DHT22;12205;50.600;4.608;2023-05-19T11:29:07;19.70;99.90
23991;DHT22;12205;50.600;4.608;2023-05-19T11:31:36;19.90;99.90
23991;DHT22;12205;50.600;4.608;2023-05-19T11:34:05;20.00;99.90
23991;DHT22;12205;50.600;4.608;2023-05-19T11:36:33;20.10;99.90
23991;DHT22;12205;50.600;4.608;2023-05-19T11:39:02;20.30;99.90
23991;DHT22;12205;50.600;4.608;2023-05-19T11:41:30;20.40;99.90
23991;DHT22;12205;50.600;4.608;2023-05-19T11:43:57;20.60;99.90
23991;DHT22;12205;50.600;4.608;2023-05-19T11:46:24;20.80;99.90
23991;DHT22;12205;50.600;4.608;2023-05-19T11:48:54;21.10;99.90
23991;DHT22;12205;50.600;4.608;2023-05-19T11:51:21;21.30;99.90
23991;DHT22;12205;50.600;4.608;2023-05-19T11:53:49;21.50;99.90
23991;DHT22;12205;50.600;4.608;2023-05-19T11:56:19;21.80;99.90
23991;DHT22;12205;50.600;4.608;2023-05-19T11:58:47;22.10;99.90
23991;DHT22;12205;50.600;4.608;2023-05-19T12:01:13;22.30;99.90
23991;DHT22;12205;50.600;4.608;2023-05-19T12:03:41;22.60;99.90
23991;DHT22;12205;50.600;4.608;2023-05-19T12:06:09;22.80;99.10
23991;DHT22;12205;50.600;4.608;2023-05-19T12:08:38;23.10;96.30
23991;DHT22;12205;50.600;4.608;2023-05-19T12:11:05;23.40;97.70
23991;DHT22;12205;50.600;4.608;2023-05-19T12:13:32;23.60;96.50
23991;DHT22;12205;50.600;4.608;2023-05-19T12:15:59;23.90;97.20
23991;DHT22;12205;50.600;4.608;2023-05-19T12:18:30;24.30;96.50
23991;DHT22;12205;50.600;4.608;2023-05-19T12:20:57;24.60;95.50
23991;DHT22;12205;50.600;4.608;2023-05-19T12:23:26;25.10;94.30
23991;DHT22;12205;50.600;4.608;2023-05-19T12:25:55;25.50;93.00
23991;DHT22;12205;50.600;4.608;2023-05-19T12:28:22;26.00;90.40
23991;DHT22;12205;50.600;4.608;2023-05-19T12:30:51;26.40;89.20
23991;DHT22;12205;50.600;4.608;2023-05-19T12:33:19;26.70;87.30
23991;DHT22;12205;50.600;4.608;2023-05-19T12:35:47;27.10;86.30
23991;DHT22;12205;50.600;4.608;2023-05-19T12:38:14;27.50;82.80
23991;DHT22;12205;50.600;4.608;2023-05-19T12:40:43;27.80;80.50
23991;DHT22;12205;50.600;4.608;2023-05-19T12:43:18;28.00;79.80
23991;DHT22;12205;50.600;4.608;2023-05-19T12:45:45;28.30;75.90
23991;DHT22;12205;50.600;4.608;2023-05-19T12:48:13;28.60;73.00
23991;DHT22;12205;50.600;4.608;2023-05-19T12:50:41;28.80;73.40
23991;DHT22;12205;50.600;4.608;2023-05-19T12:53:10;29.00;70.90
23991;DHT22;12205;50.600;4.608;2023-05-19T12:55:38;29.40;69.50
23991;DHT22;12205;50.600;4.608;2023-05-19T12:58:09;29.70;70.30
23991;DHT22;12205;50.600;4.608;2023-05-19T13:00:39;29.90;67.50
23991;DHT22;12205;50.600;4.608;2023-05-19T13:03:07;30.10;64.20
23991;DHT22;12205;50.600;4.608;2023-05-19T13:05:42;30.40;62.10
23991;DHT22;12205;50.600;4.608;2023-05-19T13:08:10;30.50;60.40
23991;DHT22;12205;50.600;4.608;2023-05-19T13:10:39;30.70;60.10
23991;DHT22;12205;50.600;4.608;2023-05-19T13:13:07;31.00;61.00
23991;DHT22;12205;50.600;4.608;2023-05-19T13:15:36;31.10;59.00
23991;DHT22;12205;50.600;4.608;2023-05-19T13:18:05;31.30;59.00
23991;DHT22;12205;50.600;4.608;2023-05-19T13:20:33;31.30;57.20
23991;DHT22;12205;50.600;4.608;2023-05-19T13:23:00;31.40;55.30
23991;DHT22;12205;50.600;4.608;2023-05-19T13:25:27;31.50;56.60
23991;DHT22;12205;50.600;4.608;2023-05-19T13:27:54;31.70;56.10
23991;DHT22;12205;50.600;4.608;2023-05-19T13:30:25;31.90;54.40
23991;DHT22;12205;50.600;4.608;2023-05-19T13:32:52;32.10;55.90
23991;DHT22;12205;50.600;4.608;2023-05-19T13:35:19;32.30;54.70
23991;DHT22;12205;50.600;4.608;2023-05-19T13:37:46;32.30;53.20
23991;DHT22;12205;50.600;4.608;2023-05-19T13:40:13;32.40;52.50
23991;DHT22;12205;50.600;4.608;2023-05-19T13:42:41;32.30;50.90
23991;DHT22;12205;50.600;4.608;2023-05-19T13:45:09;32.30;51.00
23991;DHT22;12205;50.600;4.608;2023-05-19T13:47:37;32.40;51.60
23991;DHT22;12205;50.600;4.608;2023-05-19T13:50:05;32.50;51.30
23991;DHT22;12205;50.600;4.608;2023-05-19T13:52:32;32.60;50.40
23991;DHT22;12205;50.600;4.608;2023-05-19T13:54:59;32.70;51.10
23991;DHT22;12205;50.600;4.608;2023-05-19T13:57:26;32.90;50.70
23991;DHT22;12205;50.600;4.608;2023-05-19T13:59:53;33.00;49.10
23991;DHT22;12205;50.600;4.608;2023-05-19T14:02:20;32.90;49.50
23991;DHT22;12205;50.600;4.608;2023-05-19T14:04:48;33.00;49.40
23991;DHT22;12205;50.600;4.608;2023-05-19T14:07:15;33.00;49.60
23991;DHT22;12205;50.600;4.608;2023-05-19T14:09:42;33.00;48.70
23991;DHT22;12205;50.600;4.608;2023-05-19T14:12:09;33.10;47.00
23991;DHT22;12205;50.600;4.608;2023-05-19T14:14:38;33.20;47.00
23991;DHT22;12205;50.600;4.608;2023-05-19T14:17:05;33.30;45.50
23991;DHT22;12205;50.600;4.608;2023-05-19T14:19:32;33.30;46.20
23991;DHT22;12205;50.600;4.608;2023-05-19T14:22:00;33.20;46.50
23991;DHT22;12205;50.600;4.608;2023-05-19T14:24:27;33.10;46.30
23991;DHT22;12205;50.600;4.608;2023-05-19T14:26:54;33.10;45.90
23991;DHT22;12205;50.600;4.608;2023-05-19T14:29:21;33.10;46.40
23991;DHT22;12205;50.600;4.608;2023-05-19T14:31:48;33.10;45.20
23991;DHT22;12205;50.600;4.608;2023-05-19T14:34:14;33.20;47.10
23991;DHT22;12205;50.600;4.608;2023-05-19T14:36:45;33.20;45.10
23991;DHT22;12205;50.600;4.608;2023-05-19T14:39:13;33.30;45.80
23991;DHT22;12205;50.600;4.608;2023-05-19T14:41:40;33.40;45.90
23991;DHT22;12205;50.600;4.608;2023-05-19T14:44:07;33.60;45.00
23991;DHT22;12205;50.600;4.608;2023-05-19T14:46:34;33.60;44.30
23991;DHT22;12205;50.600;4.608;2023-05-19T14:49:01;33.40;44.80
23991;DHT22;12205;50.600;4.608;2023-05-19T14:51:30;33.40;44.70
23991;DHT22;12205;50.600;4.608;2023-05-19T14:53:57;33.40;44.10
23991;DHT22;12205;50.600;4.608;2023-05-19T14:56:26;33.30;44.90
23991;DHT22;12205;50.600;4.608;2023-05-19T14:58:52;33.30;45.40
23991;DHT22;12205;50.600;4.608;2023-05-19T15:01:19;33.30;44.70
23991;DHT22;12205;50.600;4.608;2023-05-19T15:03:46;33.20;43.90
23991;DHT22;12205;50.600;4.608;2023-05-19T15:06:13;33.10;43.80
23991;DHT22;12205;50.600;4.608;2023-05-19T15:08:40;33.00;43.40
23991;DHT22;12205;50.600;4.608;2023-05-19T15:11:07;32.90;43.70
23991;DHT22;12205;50.600;4.608;2023-05-19T15:13:35;32.80;44.00
23991;DHT22;12205;50.600;4.608;2023-05-19T15:16:02;32.70;43.80
23991;DHT22;12205;50.600;4.608;2023-05-19T15:18:29;32.60;43.60
23991;DHT22;12205;50.600;4.608;2023-05-19T15:20:56;32.60;44.00
23991;DHT22;12205;50.600;4.608;2023-05-19T15:23:23;32.50;43.60
23991;DHT22;12205;50.600;4.608;2023-05-19T15:25:50;32.60;43.80
23991;DHT22;12205;50.600;4.608;2023-05-19T15:28:18;32.60;43.90
23991;DHT22;12205;50.600;4.608;2023-05-19T15:30:46;32.60;43.90
23991;DHT22;12205;50.600;4.608;2023-05-19T15:33:13;32.50;43.20
23991;DHT22;12205;50.600;4.608;2023-05-19T15:35:40;32.40;44.60
23991;DHT22;12205;50.600;4.608;2023-05-19T15:38:07;32.30;44.00
23991;DHT22;12205;50.600;4.608;2023-05-19T15:40:34;32.20;44.10
23991;DHT22;12205;50.600;4.608;2023-05-19T15:43:01;32.20;44.30
23991;DHT22;12205;50.600;4.608;2023-05-19T15:45:27;32.20;44.40
23991;DHT22;12205;50.600;4.608;2023-05-19T15:47:56;32.20;43.90